Check out our new PWSWeather beta!
PWSweather.com
Personal Weather Stations
Station Observations

SkegnessGB

Lat: 53.147585, Lon: 0.345774

Elevation: 18

Station Type: Fine Offset WH3080

http://www.skegnessweather.info/

High Low Average
Temperature 49.6°F9.8°C 35.4°F1.9°C 44.2°F6.8°C
Dew Point 43.6°F6.4°C 30.8°F-0.7°C 38.1°F3.4°C
Winds 21.0 mph 33.8 kmh 0.3 mph 0.5 kmh 11.0 mph S17.7 kmh S
Wind Gusts 20.9 mph33.6 kmh 1.7 mph2.7 kmh 12.0 mph19.3 kmh
Humidity 87% 70% 79%
Pressure 29.96 in1014.6 mb 29.79 in1008.8 mb -
Precipitation 0.05 in1.3 mm - -
Hour Temp Dew Point Humidity Winds Wind Gusts Pressure Precip Precip Rate Daily Precip Total
12:00 AM 42.1°F5.6°C 36.7°F2.6°C 81% 2.2 mph NE3.5 kmh NE 3.4 mph5.5 kmh 29.79 in1008.8 mb 0.00 in0.0 mm 0.00 in0.0 mm 0.00 in0.0 mm
12:10 AM 42.3°F5.7°C 36.8°F2.7°C 81% 1.4 mph E2.3 kmh E 2.5 mph4.0 kmh 29.79 in1008.8 mb 0.00 in0.0 mm 0.00 in0.0 mm 0.00 in0.0 mm
12:20 AM 42.4°F5.8°C 37.0°F2.8°C 81% 1.8 mph SE2.9 kmh SE 3.4 mph5.5 kmh 29.81 in1009.5 mb 0.00 in0.0 mm 0.00 in0.0 mm 0.00 in0.0 mm
12:30 AM 42.4°F5.8°C 37.0°F2.8°C 81% 0.7 mph ESE1.1 kmh ESE 2.5 mph4.0 kmh 29.81 in1009.5 mb 0.00 in0.0 mm 0.00 in0.0 mm 0.00 in0.0 mm
12:50 AM 42.3°F5.7°C 36.8°F2.7°C 81% 1.9 mph S3.1 kmh S 2.5 mph4.0 kmh 29.82 in1009.8 mb 0.00 in0.0 mm 0.00 in0.0 mm 0.00 in0.0 mm
01:00 AM 42.3°F5.7°C 36.8°F2.7°C 81% 3.0 mph SW4.8 kmh SW 4.2 mph6.8 kmh 29.84 in1010.5 mb 0.00 in0.0 mm 0.00 in0.0 mm 0.00 in0.0 mm
01:10 AM 42.1°F5.6°C 36.7°F2.6°C 81% 2.1 mph WSW3.4 kmh WSW 1.7 mph2.7 kmh 29.84 in1010.5 mb 0.00 in0.0 mm 0.00 in0.0 mm 0.00 in0.0 mm
01:20 AM 41.9°F5.5°C 36.5°F2.5°C 81% 1.3 mph WSW2.1 kmh WSW 2.5 mph4.0 kmh 29.85 in1010.8 mb 0.00 in0.0 mm 0.00 in0.0 mm 0.00 in0.0 mm
01:30 AM 41.7°F5.4°C 36.3°F2.4°C 81% 1.0 mph SW1.6 kmh SW 1.7 mph2.7 kmh 29.85 in1010.8 mb 0.00 in0.0 mm 0.00 in0.0 mm 0.00 in0.0 mm
01:40 AM 41.5°F5.3°C 36.1°F2.3°C 81% 0.9 mph WSW1.4 kmh WSW 2.5 mph4.0 kmh 29.85 in1010.8 mb 0.00 in0.0 mm 0.00 in0.0 mm 0.00 in0.0 mm
01:50 AM 41.4°F5.2°C 36.0°F2.2°C 81% 1.2 mph WSW1.9 kmh WSW 3.4 mph5.5 kmh 29.86 in1011.2 mb 0.00 in0.0 mm 0.00 in0.0 mm 0.00 in0.0 mm
02:00 AM 41.2°F5.1°C 35.8°F2.1°C 81% 0.9 mph SW1.4 kmh SW 1.7 mph2.7 kmh 29.86 in1011.2 mb 0.00 in0.0 mm 0.00 in0.0 mm 0.00 in0.0 mm
02:10 AM 40.6°F4.8°C 35.3°F1.8°C 81% 0.8 mph W1.3 kmh W 1.7 mph2.7 kmh 29.86 in1011.2 mb 0.00 in0.0 mm 0.00 in0.0 mm 0.00 in0.0 mm
02:20 AM 40.1°F4.5°C 34.7°F1.5°C 81% 0.3 mph WSW0.5 kmh WSW 1.7 mph2.7 kmh 29.87 in1011.5 mb 0.00 in0.0 mm 0.00 in0.0 mm 0.00 in0.0 mm
02:30 AM 39.7°F4.3°C 34.4°F1.3°C 81% 1.1 mph SW1.8 kmh SW 2.5 mph4.0 kmh 29.86 in1011.2 mb 0.00 in0.0 mm 0.00 in0.0 mm 0.00 in0.0 mm
02:40 AM 39.6°F4.2°C 34.2°F1.2°C 81% 2.7 mph SW4.3 kmh SW 3.4 mph5.5 kmh 29.87 in1011.5 mb 0.00 in0.0 mm 0.00 in0.0 mm 0.00 in0.0 mm
02:50 AM 39.6°F4.2°C 34.2°F1.2°C 81% 2.0 mph W3.2 kmh W 2.5 mph4.0 kmh 29.87 in1011.5 mb 0.00 in0.0 mm 0.00 in0.0 mm 0.00 in0.0 mm
03:00 AM 39.4°F4.1°C 34.3°F1.3°C 82% 2.0 mph WSW3.2 kmh WSW 3.4 mph5.5 kmh 29.88 in1011.9 mb 0.00 in0.0 mm 0.00 in0.0 mm 0.00 in0.0 mm
03:10 AM 39.6°F4.2°C 34.5°F1.4°C 82% 1.3 mph SSW2.1 kmh SSW 3.4 mph5.5 kmh 29.89 in1012.2 mb 0.00 in0.0 mm 0.00 in0.0 mm 0.00 in0.0 mm
03:20 AM 39.4°F4.1°C 34.3°F1.3°C 82% 2.2 mph SW3.5 kmh SW 3.4 mph5.5 kmh 29.89 in1012.2 mb 0.00 in0.0 mm 0.00 in0.0 mm 0.00 in0.0 mm
03:30 AM 39.2°F4.0°C 34.2°F1.2°C 82% 0.8 mph SW1.3 kmh SW 2.5 mph4.0 kmh 29.89 in1012.2 mb 0.00 in0.0 mm 0.00 in0.0 mm 0.00 in0.0 mm
03:40 AM 38.8°F3.8°C 34.1°F1.2°C 83% 1.2 mph SW1.9 kmh SW 2.5 mph4.0 kmh 29.90 in1012.5 mb 0.00 in0.0 mm 0.00 in0.0 mm 0.00 in0.0 mm
03:50 AM 38.5°F3.6°C 33.8°F1.0°C 83% 1.3 mph SW2.1 kmh SW 3.4 mph5.5 kmh 29.91 in1012.9 mb 0.00 in0.0 mm 0.00 in0.0 mm 0.00 in0.0 mm
04:00 AM 38.1°F3.4°C 33.4°F0.8°C 83% 1.5 mph SW2.4 kmh SW 4.2 mph6.8 kmh 29.90 in1012.5 mb 0.00 in0.0 mm 0.00 in0.0 mm 0.00 in0.0 mm
04:10 AM 37.8°F3.2°C 33.1°F0.6°C 83% 2.6 mph SSW4.2 kmh SSW 3.4 mph5.5 kmh 29.91 in1012.9 mb 0.00 in0.0 mm 0.00 in0.0 mm 0.00 in0.0 mm
04:20 AM 37.4°F3.0°C 32.7°F0.4°C 83% 3.3 mph S5.3 kmh S 4.2 mph6.8 kmh 29.91 in1012.9 mb 0.00 in0.0 mm 0.00 in0.0 mm 0.00 in0.0 mm
04:30 AM 37.2°F2.9°C 32.5°F0.3°C 83% 2.4 mph S3.9 kmh S 3.4 mph5.5 kmh 29.92 in1013.2 mb 0.00 in0.0 mm 0.00 in0.0 mm 0.00 in0.0 mm
04:40 AM 37.0°F2.8°C 32.4°F0.2°C 83% 2.5 mph SW4.0 kmh SW 3.4 mph5.5 kmh 29.92 in1013.2 mb 0.00 in0.0 mm 0.00 in0.0 mm 0.00 in0.0 mm
04:50 AM 36.9°F2.7°C 32.2°F0.1°C 83% 1.9 mph SW3.1 kmh SW 2.5 mph4.0 kmh 29.93 in1013.5 mb 0.00 in0.0 mm 0.00 in0.0 mm 0.00 in0.0 mm
05:00 AM 36.9°F2.7°C 32.2°F0.1°C 83% 1.4 mph SW2.3 kmh SW 2.5 mph4.0 kmh 29.93 in1013.5 mb 0.00 in0.0 mm 0.00 in0.0 mm 0.00 in0.0 mm
05:10 AM 36.7°F2.6°C 32.0°F0.0°C 83% 1.6 mph SW2.6 kmh SW 2.5 mph4.0 kmh 29.93 in1013.5 mb 0.00 in0.0 mm 0.00 in0.0 mm 0.00 in0.0 mm
05:20 AM 36.5°F2.5°C 31.8°F-0.1°C 83% 1.6 mph SSW2.6 kmh SSW 2.5 mph4.0 kmh 29.93 in1013.5 mb 0.00 in0.0 mm 0.00 in0.0 mm 0.00 in0.0 mm
05:30 AM 36.1°F2.3°C 31.5°F-0.3°C 83% 0.7 mph SW1.1 kmh SW 2.5 mph4.0 kmh 29.93 in1013.5 mb 0.00 in0.0 mm 0.00 in0.0 mm 0.00 in0.0 mm
05:40 AM 36.0°F2.2°C 31.3°F-0.4°C 83% 0.9 mph S1.4 kmh S 2.5 mph4.0 kmh 29.93 in1013.5 mb 0.00 in0.0 mm 0.00 in0.0 mm 0.00 in0.0 mm
05:50 AM 35.6°F2.0°C 30.9°F-0.6°C 83% 0.8 mph S1.3 kmh S 1.7 mph2.7 kmh 29.93 in1013.5 mb 0.00 in0.0 mm 0.00 in0.0 mm 0.00 in0.0 mm
06:00 AM 35.6°F2.0°C 30.9°F-0.6°C 83% 2.2 mph S3.5 kmh S 3.4 mph5.5 kmh 29.93 in1013.5 mb 0.00 in0.0 mm 0.00 in0.0 mm 0.00 in0.0 mm
06:10 AM 35.4°F1.9°C 30.8°F-0.7°C 83% 3.1 mph SW5.0 kmh SW 3.4 mph5.5 kmh 29.93 in1013.5 mb 0.00 in0.0 mm 0.00 in0.0 mm 0.00 in0.0 mm
06:20 AM 35.4°F1.9°C 30.8°F-0.7°C 83% 2.5 mph SW4.0 kmh SW 3.4 mph5.5 kmh 29.94 in1013.9 mb 0.00 in0.0 mm 0.00 in0.0 mm 0.00 in0.0 mm
06:30 AM 35.4°F1.9°C 31.1°F-0.5°C 84% 3.6 mph SW5.8 kmh SW 4.2 mph6.8 kmh 29.95 in1014.2 mb 0.00 in0.0 mm 0.00 in0.0 mm 0.00 in0.0 mm
06:40 AM 35.4°F1.9°C 31.1°F-0.5°C 84% 3.3 mph S5.3 kmh S 4.9 mph7.9 kmh 29.95 in1014.2 mb 0.00 in0.0 mm 0.00 in0.0 mm 0.00 in0.0 mm
06:50 AM 35.8°F2.1°C 31.4°F-0.3°C 84% 4.6 mph S7.4 kmh S 5.9 mph9.5 kmh 29.95 in1014.2 mb 0.00 in0.0 mm 0.00 in0.0 mm 0.00 in0.0 mm
07:00 AM 36.1°F2.3°C 31.8°F-0.1°C 84% 4.7 mph S7.6 kmh S 5.9 mph9.5 kmh 29.95 in1014.2 mb 0.00 in0.0 mm 0.00 in0.0 mm 0.00 in0.0 mm
07:10 AM 36.7°F2.6°C 32.3°F0.2°C 84% 3.5 mph SSW5.6 kmh SSW 6.6 mph10.6 kmh 29.96 in1014.6 mb 0.00 in0.0 mm 0.00 in0.0 mm 0.00 in0.0 mm
07:20 AM 37.0°F2.8°C 32.9°F0.5°C 85% 6.4 mph S10.3 kmh S 8.4 mph13.5 kmh 29.96 in1014.6 mb 0.00 in0.0 mm 0.00 in0.0 mm 0.00 in0.0 mm
07:30 AM 37.4°F3.0°C 33.3°F0.7°C 85% 6.6 mph S10.6 kmh S 7.6 mph12.2 kmh 29.96 in1014.6 mb 0.00 in0.0 mm 0.00 in0.0 mm 0.00 in0.0 mm
07:40 AM 37.8°F3.2°C 33.7°F0.9°C 85% 6.7 mph S10.8 kmh S 7.6 mph12.2 kmh 29.96 in1014.6 mb 0.00 in0.0 mm 0.00 in0.0 mm 0.00 in0.0 mm
07:50 AM 37.8°F3.2°C 33.7°F0.9°C 85% 7.4 mph S11.9 kmh S 6.6 mph10.6 kmh 29.96 in1014.6 mb 0.00 in0.0 mm 0.00 in0.0 mm 0.00 in0.0 mm
08:00 AM 38.1°F3.4°C 34.3°F1.3°C 86% 8.6 mph S13.8 kmh S 8.4 mph13.5 kmh 29.96 in1014.6 mb 0.00 in0.0 mm 0.00 in0.0 mm 0.00 in0.0 mm
08:10 AM 38.3°F3.5°C 34.5°F1.4°C 86% 7.8 mph SE12.6 kmh SE 9.1 mph14.6 kmh 29.96 in1014.6 mb 0.00 in0.0 mm 0.00 in0.0 mm 0.00 in0.0 mm
08:20 AM 38.7°F3.7°C 34.8°F1.6°C 86% 9.3 mph SSE15.0 kmh SSE 10.8 mph17.4 kmh 29.96 in1014.6 mb 0.00 in0.0 mm 0.00 in0.0 mm 0.00 in0.0 mm
08:30 AM 39.0°F3.9°C 35.2°F1.8°C 86% 9.8 mph S15.8 kmh S 10.1 mph16.3 kmh 29.96 in1014.6 mb 0.00 in0.0 mm 0.00 in0.0 mm 0.00 in0.0 mm
08:40 AM 39.6°F4.2°C 35.7°F2.1°C 86% 10.2 mph S16.4 kmh S 10.1 mph16.3 kmh 29.95 in1014.2 mb 0.00 in0.0 mm 0.00 in0.0 mm 0.00 in0.0 mm
08:50 AM 39.9°F4.4°C 36.4°F2.4°C 87% 10.7 mph S17.2 kmh S 11.8 mph19.0 kmh 29.95 in1014.2 mb 0.00 in0.0 mm 0.00 in0.0 mm 0.00 in0.0 mm
09:00 AM 40.3°F4.6°C 36.7°F2.6°C 87% 11.6 mph S18.7 kmh S 10.8 mph17.4 kmh 29.95 in1014.2 mb 0.00 in0.0 mm 0.00 in0.0 mm 0.00 in0.0 mm
09:10 AM 40.8°F4.9°C 37.3°F2.9°C 87% 13.3 mph WSW21.4 kmh WSW 11.8 mph19.0 kmh 29.95 in1014.2 mb 0.00 in0.0 mm 0.00 in0.0 mm 0.00 in0.0 mm
09:20 AM 41.4°F5.2°C 37.8°F3.2°C 87% 13.5 mph S21.7 kmh S 14.3 mph23.0 kmh 29.95 in1014.2 mb 0.00 in0.0 mm 0.00 in0.0 mm 0.00 in0.0 mm
09:30 AM 41.5°F5.3°C 37.7°F3.2°C 86% 12.1 mph S19.5 kmh S 13.3 mph21.4 kmh 29.95 in1014.2 mb 0.00 in0.0 mm 0.00 in0.0 mm 0.00 in0.0 mm
09:40 AM 41.5°F5.3°C 37.7°F3.2°C 86% 14.0 mph S22.5 kmh S 14.3 mph23.0 kmh 29.95 in1014.2 mb 0.00 in0.0 mm 0.00 in0.0 mm 0.00 in0.0 mm
09:50 AM 41.7°F5.4°C 37.5°F3.1°C 85% 13.7 mph SSE22.0 kmh SSE 13.3 mph21.4 kmh 29.96 in1014.6 mb 0.00 in0.0 mm 0.00 in0.0 mm 0.00 in0.0 mm
10:00 AM 42.6°F5.9°C 38.4°F3.6°C 85% 14.0 mph S22.5 kmh S 12.5 mph20.1 kmh 29.94 in1013.9 mb 0.00 in0.0 mm 0.00 in0.0 mm 0.00 in0.0 mm
10:10 AM 43.0°F6.1°C 38.2°F3.4°C 83% 16.6 mph S26.7 kmh S 16.0 mph25.7 kmh 29.94 in1013.9 mb 0.01 in0.3 mm 0.06 in1.5 mm 0.01 in0.3 mm
10:20 AM 43.7°F6.5°C 38.6°F3.7°C 82% 15.8 mph S25.4 kmh S 17.5 mph28.2 kmh 29.94 in1013.9 mb 0.01 in0.3 mm 0.00 in0.0 mm 0.01 in0.3 mm
10:30 AM 44.1°F6.7°C 38.6°F3.7°C 81% 15.3 mph S24.6 kmh S 17.5 mph28.2 kmh 29.93 in1013.5 mb 0.01 in0.3 mm 0.00 in0.0 mm 0.01 in0.3 mm
10:40 AM 45.0°F7.2°C 36.8°F2.7°C 73% 15.3 mph SSE24.6 kmh SSE 16.7 mph26.9 kmh 29.93 in1013.5 mb 0.01 in0.3 mm 0.00 in0.0 mm 0.01 in0.3 mm
10:50 AM 45.5°F7.5°C 37.0°F2.8°C 72% 15.5 mph S24.9 kmh S 15.0 mph24.1 kmh 29.93 in1013.5 mb 0.01 in0.3 mm 0.00 in0.0 mm 0.01 in0.3 mm
11:00 AM 46.0°F7.8°C 37.2°F2.9°C 71% 20.5 mph S33.0 kmh S 19.2 mph30.9 kmh 29.93 in1013.5 mb 0.01 in0.3 mm 0.00 in0.0 mm 0.01 in0.3 mm
11:10 AM 46.0°F7.8°C 37.2°F2.9°C 71% 21.0 mph S33.8 kmh S 19.2 mph30.9 kmh 29.93 in1013.5 mb 0.00 in0.0 mm 0.00 in0.0 mm 0.01 in0.3 mm
11:20 AM 46.0°F7.8°C 36.8°F2.7°C 70% 17.5 mph SW28.2 kmh SW 17.5 mph28.2 kmh 29.91 in1012.9 mb 0.00 in0.0 mm 0.00 in0.0 mm 0.01 in0.3 mm
11:30 AM 45.3°F7.4°C 36.1°F2.3°C 70% 19.2 mph S30.9 kmh S 19.2 mph30.9 kmh 29.91 in1012.9 mb 0.00 in0.0 mm 0.00 in0.0 mm 0.01 in0.3 mm
11:40 AM 45.5°F7.5°C 36.6°F2.6°C 71% 18.4 mph S29.6 kmh S 17.5 mph28.2 kmh 29.91 in1012.9 mb 0.00 in0.0 mm 0.00 in0.0 mm 0.01 in0.3 mm
11:50 AM 45.7°F7.6°C 36.8°F2.7°C 71% 18.6 mph SSE29.9 kmh SSE 18.5 mph29.8 kmh 29.90 in1012.5 mb 0.00 in0.0 mm 0.00 in0.0 mm 0.01 in0.3 mm
12:00 PM 45.7°F7.6°C 36.8°F2.7°C 71% 16.3 mph S26.2 kmh S 16.0 mph25.7 kmh 29.91 in1012.9 mb 0.00 in0.0 mm 0.00 in0.0 mm 0.01 in0.3 mm
12:10 PM 45.7°F7.6°C 37.2°F2.9°C 72% 15.9 mph S25.6 kmh S 16.7 mph26.9 kmh 29.91 in1012.9 mb 0.00 in0.0 mm 0.00 in0.0 mm 0.01 in0.3 mm
12:20 PM 46.0°F7.8°C 37.5°F3.1°C 72% 15.7 mph SE25.3 kmh SE 17.5 mph28.2 kmh 29.90 in1012.5 mb 0.00 in0.0 mm 0.00 in0.0 mm 0.01 in0.3 mm
12:30 PM 46.8°F8.2°C 38.2°F3.4°C 72% 15.8 mph SW25.4 kmh SW 15.0 mph24.1 kmh 29.90 in1012.5 mb 0.00 in0.0 mm 0.00 in0.0 mm 0.01 in0.3 mm
12:40 PM 48.0°F8.9°C 39.1°F3.9°C 71% 13.5 mph SW21.7 kmh SW 12.5 mph20.1 kmh 29.89 in1012.2 mb 0.00 in0.0 mm 0.00 in0.0 mm 0.01 in0.3 mm
12:50 PM 48.2°F9.0°C 39.2°F4.0°C 71% 18.1 mph SSE29.1 kmh SSE 19.2 mph30.9 kmh 29.89 in1012.2 mb 0.00 in0.0 mm 0.00 in0.0 mm 0.01 in0.3 mm
01:00 PM 48.4°F9.1°C 39.0°F3.9°C 70% 17.6 mph SSE28.3 kmh SSE 20.2 mph32.5 kmh 29.88 in1011.9 mb 0.00 in0.0 mm 0.00 in0.0 mm 0.01 in0.3 mm
01:10 PM 48.2°F9.0°C 39.2°F4.0°C 71% 13.7 mph SW22.0 kmh SW 15.0 mph24.1 kmh 29.89 in1012.2 mb 0.00 in0.0 mm 0.00 in0.0 mm 0.01 in0.3 mm
01:20 PM 48.2°F9.0°C 39.2°F4.0°C 71% 15.9 mph SSW25.6 kmh SSW 16.0 mph25.7 kmh 29.88 in1011.9 mb 0.00 in0.0 mm 0.00 in0.0 mm 0.01 in0.3 mm
01:30 PM 48.7°F9.3°C 40.1°F4.5°C 72% 16.3 mph S26.2 kmh S 16.7 mph26.9 kmh 29.88 in1011.9 mb 0.00 in0.0 mm 0.00 in0.0 mm 0.01 in0.3 mm
01:40 PM 49.5°F9.7°C 40.4°F4.7°C 71% 16.0 mph W25.7 kmh W 16.0 mph25.7 kmh 29.87 in1011.5 mb 0.00 in0.0 mm 0.00 in0.0 mm 0.01 in0.3 mm
01:50 PM 49.3°F9.6°C 39.9°F4.4°C 70% 17.3 mph S27.8 kmh S 18.5 mph29.8 kmh 29.88 in1011.9 mb 0.00 in0.0 mm 0.00 in0.0 mm 0.01 in0.3 mm
02:00 PM 48.9°F9.4°C 39.6°F4.2°C 70% 18.4 mph W29.6 kmh W 20.2 mph32.5 kmh 29.87 in1011.5 mb 0.00 in0.0 mm 0.00 in0.0 mm 0.01 in0.3 mm
02:10 PM 48.9°F9.4°C 39.9°F4.4°C 71% 17.6 mph S28.3 kmh S 19.2 mph30.9 kmh 29.87 in1011.5 mb 0.00 in0.0 mm 0.00 in0.0 mm 0.01 in0.3 mm
02:20 PM 48.7°F9.3°C 40.1°F4.5°C 72% 16.2 mph S26.1 kmh S 16.7 mph26.9 kmh 29.87 in1011.5 mb 0.00 in0.0 mm 0.00 in0.0 mm 0.01 in0.3 mm
02:30 PM 48.7°F9.3°C 40.1°F4.5°C 72% 16.5 mph SSE26.6 kmh SSE 18.5 mph29.8 kmh 29.87 in1011.5 mb 0.00 in0.0 mm 0.00 in0.0 mm 0.01 in0.3 mm
02:40 PM 48.7°F9.3°C 40.1°F4.5°C 72% 15.6 mph SSE25.1 kmh SSE 16.7 mph26.9 kmh 29.87 in1011.5 mb 0.00 in0.0 mm 0.00 in0.0 mm 0.01 in0.3 mm
02:50 PM 48.6°F9.2°C 39.9°F4.4°C 72% 14.1 mph SW22.7 kmh SW 15.0 mph24.1 kmh 29.87 in1011.5 mb 0.00 in0.0 mm 0.00 in0.0 mm 0.01 in0.3 mm
03:00 PM 48.6°F9.2°C 40.3°F4.6°C 73% 14.1 mph SSE22.7 kmh SSE 13.3 mph21.4 kmh 29.86 in1011.2 mb 0.00 in0.0 mm 0.00 in0.0 mm 0.01 in0.3 mm
03:10 PM 48.7°F9.3°C 40.5°F4.7°C 73% 13.6 mph SE21.9 kmh SE 14.3 mph23.0 kmh 29.86 in1011.2 mb 0.00 in0.0 mm 0.00 in0.0 mm 0.01 in0.3 mm
03:20 PM 48.9°F9.4°C 40.6°F4.8°C 73% 17.7 mph S28.5 kmh S 17.5 mph28.2 kmh 29.85 in1010.8 mb 0.00 in0.0 mm 0.00 in0.0 mm 0.01 in0.3 mm
03:30 PM 49.1°F9.5°C 40.8°F4.9°C 73% 17.2 mph SSE27.7 kmh SSE 16.0 mph25.7 kmh 29.85 in1010.8 mb 0.00 in0.0 mm 0.00 in0.0 mm 0.01 in0.3 mm
03:40 PM 49.3°F9.6°C 40.6°F4.8°C 72% 15.1 mph SSW24.3 kmh SSW 18.5 mph29.8 kmh 29.86 in1011.2 mb 0.00 in0.0 mm 0.00 in0.0 mm 0.01 in0.3 mm
03:50 PM 49.5°F9.7°C 40.8°F4.9°C 72% 14.0 mph SW22.5 kmh SW 12.5 mph20.1 kmh 29.86 in1011.2 mb 0.00 in0.0 mm 0.00 in0.0 mm 0.01 in0.3 mm
04:00 PM 49.6°F9.8°C 41.0°F5.0°C 72% 14.4 mph S23.2 kmh S 16.0 mph25.7 kmh 29.86 in1011.2 mb 0.00 in0.0 mm 0.00 in0.0 mm 0.01 in0.3 mm
04:10 PM 49.5°F9.7°C 40.8°F4.9°C 72% 16.1 mph S25.9 kmh S 17.5 mph28.2 kmh 29.86 in1011.2 mb 0.00 in0.0 mm 0.00 in0.0 mm 0.01 in0.3 mm
04:20 PM 49.3°F9.6°C 40.6°F4.8°C 72% 16.8 mph S27.0 kmh S 17.5 mph28.2 kmh 29.86 in1011.2 mb 0.00 in0.0 mm 0.00 in0.0 mm 0.01 in0.3 mm
04:30 PM 49.3°F9.6°C 40.6°F4.8°C 72% 15.9 mph SW25.6 kmh SW 16.7 mph26.9 kmh 29.86 in1011.2 mb 0.00 in0.0 mm 0.00 in0.0 mm 0.01 in0.3 mm
04:40 PM 49.5°F9.7°C 40.8°F4.9°C 72% 13.5 mph S21.7 kmh S 15.0 mph24.1 kmh 29.87 in1011.5 mb 0.00 in0.0 mm 0.00 in0.0 mm 0.01 in0.3 mm
04:50 PM 49.5°F9.7°C 40.8°F4.9°C 72% 13.9 mph SSE22.4 kmh SSE 16.0 mph25.7 kmh 29.86 in1011.2 mb 0.00 in0.0 mm 0.00 in0.0 mm 0.01 in0.3 mm
05:00 PM 49.6°F9.8°C 41.0°F5.0°C 72% 15.5 mph S24.9 kmh S 15.0 mph24.1 kmh 29.86 in1011.2 mb 0.00 in0.0 mm 0.00 in0.0 mm 0.01 in0.3 mm
05:10 PM 49.5°F9.7°C 40.8°F4.9°C 72% 17.5 mph S28.2 kmh S 16.0 mph25.7 kmh 29.86 in1011.2 mb 0.00 in0.0 mm 0.00 in0.0 mm 0.01 in0.3 mm
05:20 PM 49.3°F9.6°C 40.6°F4.8°C 72% 19.6 mph S31.5 kmh S 19.2 mph30.9 kmh 29.86 in1011.2 mb 0.00 in0.0 mm 0.00 in0.0 mm 0.01 in0.3 mm
05:30 PM 49.3°F9.6°C 41.0°F5.0°C 73% 15.8 mph SSW25.4 kmh SSW 15.0 mph24.1 kmh 29.86 in1011.2 mb 0.00 in0.0 mm 0.00 in0.0 mm 0.01 in0.3 mm
05:40 PM 49.3°F9.6°C 41.0°F5.0°C 73% 16.2 mph S26.1 kmh S 17.5 mph28.2 kmh 29.86 in1011.2 mb 0.00 in0.0 mm 0.00 in0.0 mm 0.01 in0.3 mm
05:50 PM 49.3°F9.6°C 41.3°F5.2°C 74% 16.2 mph S26.1 kmh S 16.0 mph25.7 kmh 29.86 in1011.2 mb 0.00 in0.0 mm 0.00 in0.0 mm 0.01 in0.3 mm
06:00 PM 49.3°F9.6°C 41.3°F5.2°C 74% 14.4 mph S23.2 kmh S 16.0 mph25.7 kmh 29.86 in1011.2 mb 0.00 in0.0 mm 0.00 in0.0 mm 0.01 in0.3 mm
06:10 PM 48.9°F9.4°C 41.0°F5.0°C 74% 15.4 mph S24.8 kmh S 16.7 mph26.9 kmh 29.86 in1011.2 mb 0.00 in0.0 mm 0.00 in0.0 mm 0.01 in0.3 mm
06:20 PM 48.7°F9.3°C 41.2°F5.1°C 75% 16.6 mph SW26.7 kmh SW 16.7 mph26.9 kmh 29.87 in1011.5 mb 0.00 in0.0 mm 0.00 in0.0 mm 0.01 in0.3 mm
06:30 PM 48.7°F9.3°C 41.2°F5.1°C 75% 17.2 mph S27.7 kmh S 16.0 mph25.7 kmh 29.86 in1011.2 mb 0.00 in0.0 mm 0.00 in0.0 mm 0.01 in0.3 mm
06:40 PM 48.7°F9.3°C 41.5°F5.3°C 76% 18.7 mph SE30.1 kmh SE 17.5 mph28.2 kmh 29.87 in1011.5 mb 0.00 in0.0 mm 0.00 in0.0 mm 0.01 in0.3 mm
06:50 PM 48.7°F9.3°C 41.5°F5.3°C 76% 17.6 mph SW28.3 kmh SW 19.2 mph30.9 kmh 29.87 in1011.5 mb 0.00 in0.0 mm 0.00 in0.0 mm 0.01 in0.3 mm
07:00 PM 48.6°F9.2°C 41.3°F5.2°C 76% 15.0 mph S24.1 kmh S 17.5 mph28.2 kmh 29.88 in1011.9 mb 0.00 in0.0 mm 0.00 in0.0 mm 0.01 in0.3 mm
07:10 PM 48.7°F9.3°C 41.8°F5.4°C 77% 18.9 mph S30.4 kmh S 19.2 mph30.9 kmh 29.87 in1011.5 mb 0.00 in0.0 mm 0.00 in0.0 mm 0.01 in0.3 mm
07:20 PM 48.7°F9.3°C 41.8°F5.4°C 77% 17.1 mph S27.5 kmh S 20.9 mph33.6 kmh 29.88 in1011.9 mb 0.00 in0.0 mm 0.00 in0.0 mm 0.01 in0.3 mm
07:30 PM 48.7°F9.3°C 42.2°F5.7°C 78% 16.3 mph S26.2 kmh S 16.7 mph26.9 kmh 29.88 in1011.9 mb 0.00 in0.0 mm 0.00 in0.0 mm 0.01 in0.3 mm
07:40 PM 48.7°F9.3°C 42.5°F5.8°C 79% 18.7 mph S30.1 kmh S 18.5 mph29.8 kmh 29.88 in1011.9 mb 0.00 in0.0 mm 0.00 in0.0 mm 0.01 in0.3 mm
07:50 PM 48.6°F9.2°C 42.7°F5.9°C 80% 18.9 mph SSE30.4 kmh SSE 17.5 mph28.2 kmh 29.87 in1011.5 mb 0.00 in0.0 mm 0.00 in0.0 mm 0.01 in0.3 mm
08:00 PM 48.4°F9.1°C 42.5°F5.8°C 80% 14.0 mph S22.5 kmh S 16.7 mph26.9 kmh 29.88 in1011.9 mb 0.00 in0.0 mm 0.00 in0.0 mm 0.01 in0.3 mm
08:10 PM 48.4°F9.1°C 42.8°F6.0°C 81% 11.5 mph SW18.5 kmh SW 10.1 mph16.3 kmh 29.88 in1011.9 mb 0.00 in0.0 mm 0.00 in0.0 mm 0.01 in0.3 mm
08:20 PM 48.2°F9.0°C 42.6°F5.9°C 81% 13.8 mph SSE22.2 kmh SSE 15.0 mph24.1 kmh 29.88 in1011.9 mb 0.00 in0.0 mm 0.00 in0.0 mm 0.01 in0.3 mm
08:30 PM 48.2°F9.0°C 42.6°F5.9°C 81% 14.3 mph SSW23.0 kmh SSW 15.0 mph24.1 kmh 29.88 in1011.9 mb 0.00 in0.0 mm 0.00 in0.0 mm 0.01 in0.3 mm
08:40 PM 48.0°F8.9°C 42.8°F6.0°C 82% 13.8 mph SSW22.2 kmh SSW 13.3 mph21.4 kmh 29.88 in1011.9 mb 0.00 in0.0 mm 0.00 in0.0 mm 0.01 in0.3 mm
08:50 PM 48.2°F9.0°C 43.0°F6.1°C 82% 17.6 mph SSW28.3 kmh SSW 17.5 mph28.2 kmh 29.88 in1011.9 mb 0.00 in0.0 mm 0.00 in0.0 mm 0.01 in0.3 mm
09:00 PM 48.2°F9.0°C 43.0°F6.1°C 82% 15.9 mph SSE25.6 kmh SSE 17.5 mph28.2 kmh 29.87 in1011.5 mb 0.00 in0.0 mm 0.00 in0.0 mm 0.01 in0.3 mm
09:10 PM 48.0°F8.9°C 43.1°F6.2°C 83% 12.8 mph SSE20.6 kmh SSE 16.7 mph26.9 kmh 29.88 in1011.9 mb 0.00 in0.0 mm 0.00 in0.0 mm 0.01 in0.3 mm
09:20 PM 48.2°F9.0°C 43.3°F6.3°C 83% 13.9 mph S22.4 kmh S 16.7 mph26.9 kmh 29.88 in1011.9 mb 0.00 in0.0 mm 0.00 in0.0 mm 0.01 in0.3 mm
09:30 PM 48.2°F9.0°C 43.3°F6.3°C 83% 14.7 mph S23.7 kmh S 12.5 mph20.1 kmh 29.88 in1011.9 mb 0.00 in0.0 mm 0.00 in0.0 mm 0.01 in0.3 mm
09:40 PM 48.2°F9.0°C 43.3°F6.3°C 83% 13.0 mph SSW20.9 kmh SSW 12.5 mph20.1 kmh 29.88 in1011.9 mb 0.00 in0.0 mm 0.00 in0.0 mm 0.01 in0.3 mm
09:50 PM 48.2°F9.0°C 43.6°F6.4°C 84% 14.5 mph SSW23.3 kmh SSW 19.2 mph30.9 kmh 29.88 in1011.9 mb 0.00 in0.0 mm 0.00 in0.0 mm 0.01 in0.3 mm
10:00 PM 48.0°F8.9°C 43.4°F6.3°C 84% 12.3 mph SW19.8 kmh SW 14.3 mph23.0 kmh 29.89 in1012.2 mb 0.00 in0.0 mm 0.00 in0.0 mm 0.01 in0.3 mm
10:10 PM 47.8°F8.8°C 43.2°F6.2°C 84% 11.3 mph SSE18.2 kmh SSE 13.3 mph21.4 kmh 29.88 in1011.9 mb 0.00 in0.0 mm 0.00 in0.0 mm 0.01 in0.3 mm
10:20 PM 47.8°F8.8°C 43.2°F6.2°C 84% 12.7 mph S20.4 kmh S 15.0 mph24.1 kmh 29.88 in1011.9 mb 0.00 in0.0 mm 0.00 in0.0 mm 0.01 in0.3 mm
10:30 PM 47.7°F8.7°C 43.1°F6.2°C 84% 11.0 mph SW17.7 kmh SW 13.3 mph21.4 kmh 29.86 in1011.2 mb 0.00 in0.0 mm 0.00 in0.0 mm 0.01 in0.3 mm
10:40 PM 47.5°F8.6°C 42.9°F6.1°C 84% 12.9 mph S20.8 kmh S 16.0 mph25.7 kmh 29.87 in1011.5 mb 0.00 in0.0 mm 0.00 in0.0 mm 0.01 in0.3 mm
10:50 PM 47.5°F8.6°C 42.9°F6.1°C 84% 11.1 mph S17.9 kmh S 12.5 mph20.1 kmh 29.86 in1011.2 mb 0.00 in0.0 mm 0.00 in0.0 mm 0.01 in0.3 mm
11:00 PM 47.5°F8.6°C 42.9°F6.1°C 84% 15.4 mph S24.8 kmh S 15.0 mph24.1 kmh 29.87 in1011.5 mb 0.00 in0.0 mm 0.00 in0.0 mm 0.01 in0.3 mm
11:10 PM 47.5°F8.6°C 42.9°F6.1°C 84% 13.6 mph S21.9 kmh S 11.8 mph19.0 kmh 29.87 in1011.5 mb 0.00 in0.0 mm 0.00 in0.0 mm 0.01 in0.3 mm
11:20 PM 47.7°F8.7°C 43.4°F6.3°C 85% 14.8 mph SSW23.8 kmh SSW 15.0 mph24.1 kmh 29.86 in1011.2 mb 0.00 in0.0 mm 0.00 in0.0 mm 0.01 in0.3 mm
11:30 PM 47.5°F8.6°C 43.2°F6.2°C 85% 11.8 mph SSW19.0 kmh SSW 12.5 mph20.1 kmh 29.87 in1011.5 mb 0.00 in0.0 mm 0.00 in0.0 mm 0.01 in0.3 mm
11:40 PM 47.5°F8.6°C 43.2°F6.2°C 85% 9.1 mph S14.6 kmh S 8.4 mph13.5 kmh 29.87 in1011.5 mb 0.01 in0.3 mm 0.06 in1.5 mm 0.02 in0.5 mm
11:50 PM 47.3°F8.5°C 43.0°F6.1°C 85% 8.0 mph SSW12.9 kmh SSW 8.4 mph13.5 kmh 29.88 in1011.9 mb 0.04 in1.0 mm 0.18 in4.6 mm 0.05 in1.3 mm